Marquette, Iowa
Current Conditions -  °F | °C
As of 2:35 AM on Saturday 22 Nov 2014 (Local Time) from KPDC Reporting Station
Overcast Overcast  
Wind Chill: 28°   Ceiling: 1200
Heat Index: 33°   Visibility: 7mi
Dew Point: 28°   Wind: 6mph
Humidity: 82%   Direction: 160°SSE
Pressure: 30"   Gusts: NA
Location:  43.05°N, 91.18°W
Report Text: KPDC 220835Z AUTO 16005KT 7SM OVC012 01/M02 A3000 RMK AO2 T00071020
Loading
Personal Weather Stations






























Interactive Weather Map New forecast layout! Learn more

10-Day Weather Forecast

Advertisements
Track Severe Weather on mobile